Repubbli Del Brasile — IBZB — position and weather

sailwx.info

Track history (hours):
 
Tides and Currents Weather Stations Pressure Air Temp Water Temp Dewpoint Dewpoint Depression Visibility Wind Speed Wind Dir Waves Ship Positions

Repubbli Del Brasile

Last reported at 2016-Jun-27 09:15 UTC. Time now 2016-Jul-01 20:47 UTC.
Position N 05°13' W 003°58'.

Length 209 m; draft 8.5 m.

Type: Ship (hazmat cat B). MMSI: 247310000.

Date/timePositionNaut miles runAvg speedWind from/ knotsBaromVisibWave heightAir tempDewpointWater temp
2016-Jun-27 09:15N 05°13' W 003°58'5 6.5
2016-Jun-27 08:31N 05°16' W 004°01'0 0.3
2016-Jun-27 07:09N 05°17' W 004°01'0 0.0
2016-Jun-27 06:21N 05°17' W 004°01'0 0.0
2016-Jun-27 04:32N 05°17' W 004°01'0 0.0
2016-Jun-27 01:30N 05°17' W 004°01'0 0.0
2016-Jun-27 00:30N 05°17' W 004°01'0 0.0
2016-Jun-26 23:30N 05°17' W 004°01'0 0.0
2016-Jun-26 22:17N 05°17' W 004°01'0 0.0
2016-Jun-26 21:23N 05°17' W 004°01'0 0.0
2016-Jun-26 17:21N 05°17' W 004°01'0 0.0
2016-Jun-26 16:27N 05°17' W 004°01'0 0.0
2016-Jun-26 15:32N 05°17' W 004°01'0 0.0
2016-Jun-26 14:14N 05°17' W 004°01'0 0.0
2016-Jun-26 13:25N 05°17' W 004°01'0 0.0
2016-Jun-26 12:21N 05°17' W 004°01'3 4.3
2016-Jun-26 11:33N 05°14' W 003°59'2 1.5
2016-Jun-26 10:19N 05°12' W 003°58'5 4.7
2016-Jun-26 09:12N 05°07' W 003°58'  
2016-Jun-22 11:30N 14°25' W 017°24'1415.0
2016-Jun-22 10:33N 14°40' W 017°23'3 2.5
2016-Jun-22 09:23N 14°41' W 017°26'0 0.0
2016-Jun-22 08:31N 14°41' W 017°26'0 0.0
2016-Jun-22 07:31N 14°41' W 017°26'0 0.0
2016-Jun-22 06:31N 14°41' W 017°26'0 0.0
2016-Jun-22 05:27N 14°41' W 017°26'0 0.0
2016-Jun-22 04:33N 14°41' W 017°26'0 0.0
2016-Jun-22 03:29N 14°41' W 017°26'0 0.0
2016-Jun-22 02:26N 14°41' W 017°26'0 0.0
2016-Jun-22 01:31N 14°41' W 017°26'0 0.0
2016-Jun-22 00:31N 14°41' W 017°26'0 0.0
2016-Jun-21 23:31N 14°41' W 017°26'0 0.0
2016-Jun-21 22:27N 14°41' W 017°26'0 0.0
2016-Jun-21 21:33N 14°41' W 017°26'0 0.0
2016-Jun-21 20:32N 14°41' W 017°26'0 0.0
2016-Jun-21 19:32N 14°41' W 017°26'0 0.0
2016-Jun-21 18:31N 14°41' W 017°26'0 0.0
2016-Jun-21 17:31N 14°41' W 017°26'0 0.0
2016-Jun-21 16:31N 14°41' W 017°26'0 0.0
2016-Jun-21 15:33N 14°41' W 017°26'0 0.0
2016-Jun-21 14:30N 14°41' W 017°26'0 0.0
2016-Jun-21 13:29N 14°41' W 017°26'0 0.0
2016-Jun-21 12:32N 14°41' W 017°26'0 0.0
2016-Jun-21 11:31N 14°41' W 017°26'0 0.0
2016-Jun-21 10:31N 14°41' W 017°26'0 0.0
2016-Jun-21 09:34N 14°41' W 017°26'0 0.0
2016-Jun-21 08:27N 14°41' W 017°26'0 0.0
2016-Jun-21 07:30N 14°41' W 017°26'0 0.0
2016-Jun-21 06:32N 14°41' W 017°26'0 0.0
2016-Jun-21 04:31N 14°41' W 017°26'0 0.0
2016-Jun-21 03:28N 14°41' W 017°26'0 0.0
2016-Jun-21 02:31N 14°41' W 017°26'0 0.0
2016-Jun-21 01:30N 14°41' W 017°26'0 0.0
2016-Jun-21 00:33N 14°41' W 017°26'0 0.0
2016-Jun-20 23:26N 14°41' W 017°26'0 0.0
2016-Jun-20 22:32N 14°41' W 017°26'0 0.0
2016-Jun-20 21:31N 14°41' W 017°26'0 0.0
2016-Jun-20 20:25N 14°41' W 017°26'0 0.0
2016-Jun-20 19:33N 14°41' W 017°26'0 0.0
2016-Jun-20 18:27N 14°41' W 017°26'0 0.0
2016-Jun-20 17:33N 14°41' W 017°26'3 2.7
2016-Jun-20 16:34N 14°40' W 017°23'1411.4
2016-Jun-20 15:22N 14°42' W 017°37'3515.5
2016-Jun-20 13:08N 15°17' W 017°39'915.3
2016-Jun-20 12:33N 15°25' W 017°39'1615.6
2016-Jun-20 11:33N 15°41' W 017°41'1815.5
2016-Jun-20 10:25N 15°58' W 017°42'3415.5
2016-Jun-20 08:12N 16°33' W 017°44'1015.6
2016-Jun-20 07:34N 16°43' W 017°44'1715.5
2016-Jun-20 06:27N 17°00' W 017°45'70214.7
2016-Jun-18 06:33N 28°08' W 013°48'1615.9
2016-Jun-18 05:32N 28°22' W 013°40'1615.9
2016-Jun-18 04:33N 28°36' W 013°32'1615.8
2016-Jun-18 03:33N 28°50' W 013°24'1515.4
2016-Jun-18 02:33N 29°04' W 013°16'  
Track history (hours):
 
Tides and Currents Weather Stations Pressure Air Temp Water Temp Dewpoint Dewpoint Depression Visibility Wind Speed Wind Dir Waves Ship Positions

Repubbli Del Brasile

Last reported at 2016-Jun-27 09:15 UTC. Time now 2016-Jul-01 20:47 UTC.
Position N 05°13' W 003°58'.

Length 209 m; draft 8.5 m.

Type: Ship (hazmat cat B). MMSI: 247310000.

Date/timePositionNaut miles runAvg speedWind from/ knotsBaromVisibWave heightAir tempDewpointWater temp
2016-Jun-27 09:15N 05°13' W 003°58'5 6.5
2016-Jun-27 08:31N 05°16' W 004°01'0 0.3
2016-Jun-27 07:09N 05°17' W 004°01'0 0.0
2016-Jun-27 06:21N 05°17' W 004°01'0 0.0
2016-Jun-27 04:32N 05°17' W 004°01'0 0.0
2016-Jun-27 01:30N 05°17' W 004°01'0 0.0
2016-Jun-27 00:30N 05°17' W 004°01'0 0.0
2016-Jun-26 23:30N 05°17' W 004°01'0 0.0
2016-Jun-26 22:17N 05°17' W 004°01'0 0.0
2016-Jun-26 21:23N 05°17' W 004°01'0 0.0
2016-Jun-26 17:21N 05°17' W 004°01'0 0.0
2016-Jun-26 16:27N 05°17' W 004°01'0 0.0
2016-Jun-26 15:32N 05°17' W 004°01'0 0.0
2016-Jun-26 14:14N 05°17' W 004°01'0 0.0
2016-Jun-26 13:25N 05°17' W 004°01'0 0.0
2016-Jun-26 12:21N 05°17' W 004°01'3 4.3
2016-Jun-26 11:33N 05°14' W 003°59'2 1.5
2016-Jun-26 10:19N 05°12' W 003°58'5 4.7
2016-Jun-26 09:12N 05°07' W 003°58'  
2016-Jun-22 11:30N 14°25' W 017°24'1415.0
2016-Jun-22 10:33N 14°40' W 017°23'3 2.5
2016-Jun-22 09:23N 14°41' W 017°26'0 0.0
2016-Jun-22 08:31N 14°41' W 017°26'0 0.0
2016-Jun-22 07:31N 14°41' W 017°26'0 0.0
2016-Jun-22 06:31N 14°41' W 017°26'0 0.0
2016-Jun-22 05:27N 14°41' W 017°26'0 0.0
2016-Jun-22 04:33N 14°41' W 017°26'0 0.0
2016-Jun-22 03:29N 14°41' W 017°26'0 0.0
2016-Jun-22 02:26N 14°41' W 017°26'0 0.0
2016-Jun-22 01:31N 14°41' W 017°26'0 0.0
2016-Jun-22 00:31N 14°41' W 017°26'0 0.0
2016-Jun-21 23:31N 14°41' W 017°26'0 0.0
2016-Jun-21 22:27N 14°41' W 017°26'0 0.0
2016-Jun-21 21:33N 14°41' W 017°26'0 0.0
2016-Jun-21 20:32N 14°41' W 017°26'0 0.0
2016-Jun-21 19:32N 14°41' W 017°26'0 0.0
2016-Jun-21 18:31N 14°41' W 017°26'0 0.0
2016-Jun-21 17:31N 14°41' W 017°26'0 0.0
2016-Jun-21 16:31N 14°41' W 017°26'0 0.0
2016-Jun-21 15:33N 14°41' W 017°26'0 0.0
2016-Jun-21 14:30N 14°41' W 017°26'0 0.0
2016-Jun-21 13:29N 14°41' W 017°26'0 0.0
2016-Jun-21 12:32N 14°41' W 017°26'0 0.0
2016-Jun-21 11:31N 14°41' W 017°26'0 0.0
2016-Jun-21 10:31N 14°41' W 017°26'0 0.0
2016-Jun-21 09:34N 14°41' W 017°26'0 0.0
2016-Jun-21 08:27N 14°41' W 017°26'0 0.0
2016-Jun-21 07:30N 14°41' W 017°26'0 0.0
2016-Jun-21 06:32N 14°41' W 017°26'0 0.0
2016-Jun-21 04:31N 14°41' W 017°26'0 0.0
2016-Jun-21 03:28N 14°41' W 017°26'0 0.0
2016-Jun-21 02:31N 14°41' W 017°26'0 0.0
2016-Jun-21 01:30N 14°41' W 017°26'0 0.0
2016-Jun-21 00:33N 14°41' W 017°26'0 0.0
2016-Jun-20 23:26N 14°41' W 017°26'0 0.0
2016-Jun-20 22:32N 14°41' W 017°26'0 0.0
2016-Jun-20 21:31N 14°41' W 017°26'0 0.0
2016-Jun-20 20:25N 14°41' W 017°26'0 0.0
2016-Jun-20 19:33N 14°41' W 017°26'0 0.0
2016-Jun-20 18:27N 14°41' W 017°26'0 0.0
2016-Jun-20 17:33N 14°41' W 017°26'3 2.7
2016-Jun-20 16:34N 14°40' W 017°23'1411.4
2016-Jun-20 15:22N 14°42' W 017°37'3515.5
2016-Jun-20 13:08N 15°17' W 017°39'915.3
2016-Jun-20 12:33N 15°25' W 017°39'1615.6
2016-Jun-20 11:33N 15°41' W 017°41'1815.5
2016-Jun-20 10:25N 15°58' W 017°42'3415.5
2016-Jun-20 08:12N 16°33' W 017°44'1015.6
2016-Jun-20 07:34N 16°43' W 017°44'1715.5
2016-Jun-20 06:27N 17°00' W 017°45'70214.7
2016-Jun-18 06:33N 28°08' W 013°48'1615.9
2016-Jun-18 05:32N 28°22' W 013°40'1615.9
2016-Jun-18 04:33N 28°36' W 013°32'1615.8
2016-Jun-18 03:33N 28°50' W 013°24'1515.4
2016-Jun-18 02:33N 29°04' W 013°16'  

Dump ship's entire track history